Time;durP1;ratioP1;P1;durP2;ratioP2;P2;SDS_P1;SDS_P2;PMS_P1;PMS_P2;Temp;Humidity;BMP_temperature;BMP_pressure;BME280_temperature;BME280_humidity;BME280_pressure;Samples;Min_cycle;Max_cycle;Signal;HPM_P1;HPM_P2
2023/01/21 00:01:16;;;;;;;48.50;35.10;;;-0.60;99.90;;;;;;6136253;23;20409;-74
2023/01/21 00:03:45;;;;;;;46.37;37.00;;;-0.60;99.90;;;;;;6136005;23;20412;-74
2023/01/21 00:06:15;;;;;;;52.40;36.77;;;-0.60;99.90;;;;;;6135872;23;20449;-74
2023/01/21 00:08:44;;;;;;;48.03;36.03;;;-0.60;99.90;;;;;;6136267;23;20413;-74
2023/01/21 00:11:15;;;;;;;51.60;37.53;;;-0.60;99.90;;;;;;6137719;23;20428;-74
2023/01/21 00:13:43;;;;;;;56.47;37.00;;;-0.60;99.90;;;;;;6138251;23;20390;-74
2023/01/21 00:16:12;;;;;;;53.00;40.63;;;-0.60;99.90;;;;;;6126425;23;20433;-74
2023/01/21 00:18:41;;;;;;;57.10;37.63;;;-0.60;99.90;;;;;;6138108;23;20407;-74
2023/01/21 00:21:09;;;;;;;50.80;36.60;;;-0.60;99.90;;;;;;6138351;23;20404;-74
2023/01/21 00:23:37;;;;;;;48.67;38.00;;;-0.60;99.90;;;;;;6128774;23;20437;-74
2023/01/21 00:26:08;;;;;;;53.53;39.90;;;-0.60;99.90;;;;;;6138047;23;20404;-74
2023/01/21 00:28:37;;;;;;;47.30;34.33;;;-0.60;99.90;;;;;;6126731;23;20736;-74
2023/01/21 00:31:07;;;;;;;51.67;37.03;;;-0.60;99.90;;;;;;6137743;23;20452;-74
2023/01/21 00:33:36;;;;;;;53.10;36.77;;;-0.50;99.90;;;;;;6126724;23;20433;-74
2023/01/21 00:36:06;;;;;;;48.80;35.77;;;-0.50;99.90;;;;;;6126540;23;20922;-74
2023/01/21 00:38:35;;;;;;;55.03;37.30;;;-0.50;99.90;;;;;;6126465;23;20437;-74
2023/01/21 00:41:04;;;;;;;49.30;35.70;;;-0.50;99.90;;;;;;6137593;23;20456;-74
2023/01/21 00:43:34;;;;;;;59.37;39.23;;;-0.50;99.90;;;;;;6127659;23;20956;-74
2023/01/21 00:46:03;;;;;;;53.73;36.90;;;-0.50;99.90;;;;;;6127752;23;20465;-74
2023/01/21 00:48:32;;;;;;;54.00;36.80;;;-0.50;99.90;;;;;;6126206;23;20409;-74
2023/01/21 00:51:00;;;;;;;52.57;34.10;;;-0.50;99.90;;;;;;6126201;23;20456;-74
2023/01/21 00:53:30;;;;;;;51.57;37.30;;;-0.50;99.90;;;;;;6138172;23;20469;-74
2023/01/21 00:56:00;;;;;;;57.40;37.43;;;-0.50;99.90;;;;;;6137454;23;20457;-74
2023/01/21 00:58:28;;;;;;;52.53;35.93;;;-0.40;99.90;;;;;;6137496;23;20453;-74
2023/01/21 01:01:06;;;;;;;50.33;35.80;;;-0.40;99.90;;;;;;6137405;23;20408;-74
2023/01/21 01:03:35;;;;;;;49.60;37.23;;;-0.40;99.90;;;;;;6126053;23;20425;-74
2023/01/21 01:06:05;;;;;;;55.07;36.50;;;-0.30;99.90;;;;;;6136982;23;20480;-74
2023/01/21 01:08:34;;;;;;;57.23;40.30;;;-0.30;99.90;;;;;;6137212;23;20405;-74
2023/01/21 01:11:02;;;;;;;60.53;38.47;;;-0.30;99.90;;;;;;6125983;23;20425;-74
2023/01/21 01:13:30;;;;;;;49.50;34.50;;;-0.30;99.90;;;;;;6127783;23;20409;-74
2023/01/21 01:15:59;;;;;;;64.10;39.40;;;-0.30;99.90;;;;;;6137295;23;20397;-74
2023/01/21 01:18:31;;;;;;;52.33;33.93;;;-0.30;99.90;;;;;;6137318;23;20397;-74
2023/01/21 01:20:59;;;;;;;56.83;35.70;;;-0.20;99.90;;;;;;6125661;23;20414;-74
2023/01/21 01:23:27;;;;;;;55.87;36.80;;;-0.20;99.90;;;;;;6137140;23;20433;-74
2023/01/21 01:25:57;;;;;;;40.53;27.40;;;-0.20;99.90;;;;;;6137137;23;20472;-74
2023/01/21 01:28:26;;;;;;;50.53;34.60;;;-0.20;99.90;;;;;;6137275;23;20484;-74
2023/01/21 01:30:55;;;;;;;48.20;33.60;;;-0.10;99.90;;;;;;6127777;23;20497;-74
2023/01/21 01:33:23;;;;;;;52.20;34.77;;;-0.10;99.90;;;;;;6125758;23;20425;-74
2023/01/21 01:35:53;;;;;;;56.33;37.27;;;-0.10;99.90;;;;;;6137096;23;20402;-74
2023/01/21 01:38:22;;;;;;;61.70;37.33;;;0.00;99.90;;;;;;6137198;23;20484;-74
2023/01/21 01:40:52;;;;;;;50.00;34.20;;;0.00;99.90;;;;;;6125748;23;20464;-74
2023/01/21 01:43:23;;;;;;;52.07;36.73;;;0.00;99.90;;;;;;6125600;23;20480;-74
2023/01/21 01:45:51;;;;;;;47.93;34.23;;;0.00;99.90;;;;;;6127473;23;20836;-74
2023/01/21 01:48:23;;;;;;;53.10;37.70;;;0.00;99.90;;;;;;6137006;23;20809;-74
2023/01/21 01:50:55;;;;;;;46.20;33.60;;;0.10;99.90;;;;;;6137052;23;20378;-74
2023/01/21 01:53:24;;;;;;;49.60;35.63;;;0.10;99.90;;;;;;6125652;23;20940;-74
2023/01/21 01:55:53;;;;;;;47.50;33.00;;;0.10;99.90;;;;;;6137186;23;20397;-74
2023/01/21 01:58:22;;;;;;;48.30;32.37;;;0.20;99.90;;;;;;6137245;23;20401;-74
2023/01/21 02:00:51;;;;;;;48.87;32.47;;;0.20;99.90;;;;;;6125486;23;20928;-74
2023/01/21 02:06:06;;;;;;;52.50;35.83;;;0.20;99.90;;;;;;6127245;23;20737;-74
2023/01/21 02:08:35;;;;;;;51.47;33.97;;;0.20;99.90;;;;;;6127359;23;20732;-74
2023/01/21 02:11:10;;;;;;;50.30;33.57;;;0.20;99.90;;;;;;6136665;23;20477;-74
2023/01/21 02:13:39;;;;;;;49.60;34.53;;;0.30;99.90;;;;;;6125370;23;20412;-74
2023/01/21 02:16:32;;;;;;;51.63;36.10;;;0.30;99.90;;;;;;6136609;23;20412;-74
2023/01/21 02:19:14;;;;;;;43.63;32.17;;;0.30;99.90;;;;;;6137131;23;20425;-74
2023/01/21 02:22:01;;;;;;;49.80;32.80;;;0.30;99.90;;;;;;6125493;23;20878;-74
2023/01/21 02:25:06;;;;;;;45.10;33.40;;;0.40;99.90;;;;;;6136559;23;20897;-74
2023/01/21 02:27:47;;;;;;;46.20;33.83;;;0.40;99.90;;;;;;6079952;23;20469;-74
2023/01/21 02:30:51;;;;;;;47.30;32.10;;;0.40;99.90;;;;;;6137055;23;20416;-74
2023/01/21 02:33:44;;;;;;;49.43;33.90;;;0.40;99.90;;;;;;6136364;23;20382;-74
2023/01/21 02:36:26;;;;;;;46.90;32.67;;;0.50;99.90;;;;;;6125163;23;20451;-74
2023/01/21 02:39:08;;;;;;;50.30;32.00;;;0.50;99.90;;;;;;6125174;23;20414;-74
2023/01/21 02:41:49;;;;;;;45.67;32.80;;;0.50;99.90;;;;;;6127164;23;20401;-74
2023/01/21 02:44:24;;;;;;;44.17;30.90;;;0.50;99.90;;;;;;6135825;23;20423;-74
2023/01/21 02:46:58;;;;;;;43.23;31.40;;;0.50;99.90;;;;;;6125076;23;20483;-74
2023/01/21 02:49:34;;;;;;;49.27;35.10;;;0.60;99.90;;;;;;6125236;23;20935;-74
2023/01/21 02:52:02;;;;;;;52.03;36.23;;;0.60;99.90;;;;;;6125163;23;20449;-74
2023/01/21 02:54:53;;;;;;;51.23;36.10;;;0.60;99.90;;;;;;6136411;23;20921;-74
2023/01/21 02:57:34;;;;;;;61.10;42.20;;;0.60;99.90;;;;;;6136717;23;20414;-74
2023/01/21 03:00:05;;;;;;;51.80;35.87;;;0.60;99.90;;;;;;6124943;23;20425;-74
2023/01/21 03:02:55;;;;;;;46.40;34.50;;;0.60;99.90;;;;;;6125035;23;20815;-74
2023/01/21 03:05:33;;;;;;;46.60;33.83;;;0.60;99.90;;;;;;6136723;23;20905;-74
2023/01/21 03:08:11;;;;;;;48.90;35.20;;;0.60;99.90;;;;;;6124868;23;20536;-74
2023/01/21 03:10:42;;;;;;;51.53;35.13;;;0.70;99.90;;;;;;6126697;23;20884;-75
2023/01/21 03:16:55;;;;;;;49.83;35.53;;;0.70;99.90;;;;;;6124858;23;20417;-74
2023/01/21 03:19:03;;;;;;;49.23;33.43;;;0.70;99.90;;;;;;6136194;23;20418;-74
2023/01/21 03:21:33;;;;;;;42.93;33.33;;;0.70;99.90;;;;;;6136525;23;20393;-74
2023/01/21 03:24:02;;;;;;;46.33;33.10;;;0.70;99.90;;;;;;6136597;23;20511;-74
2023/01/21 03:26:35;;;;;;;45.17;33.63;;;0.80;99.90;;;;;;6136130;23;20787;-74
2023/01/21 03:29:06;;;;;;;48.60;36.13;;;0.80;99.90;;;;;;6124859;23;20401;-74
2023/01/21 03:31:39;;;;;;;46.00;34.83;;;0.80;99.90;;;;;;6124801;23;20407;-74
2023/01/21 03:34:12;;;;;;;48.80;34.53;;;0.80;99.90;;;;;;6135787;23;20393;-74
2023/01/21 03:36:49;;;;;;;63.40;48.37;;;0.80;99.90;;;;;;6135964;23;20415;-74
2023/01/21 03:39:22;;;;;;;52.77;41.27;;;0.80;99.90;;;;;;6124832;23;20406;-75
2023/01/21 03:41:50;;;;;;;53.90;39.63;;;0.80;99.90;;;;;;6136538;23;20819;-75
2023/01/21 03:44:18;;;;;;;54.07;41.30;;;0.80;99.90;;;;;;6127600;23;20443;-75
2023/01/21 03:46:55;;;;;;;54.63;41.63;;;0.90;99.90;;;;;;6126550;23;20449;-75
2023/01/21 03:49:30;;;;;;;50.30;40.37;;;0.90;99.90;;;;;;6128671;23;20395;-74
2023/01/21 03:52:02;;;;;;;49.70;36.47;;;0.90;99.90;;;;;;6126731;23;20416;-74
2023/01/21 03:54:30;;;;;;;50.57;36.67;;;0.90;99.90;;;;;;6138358;23;20840;-74
2023/01/21 03:56:58;;;;;;;49.80;37.60;;;0.90;99.90;;;;;;6126626;23;20443;-74
2023/01/21 03:59:26;;;;;;;53.80;39.43;;;0.90;99.90;;;;;;6138093;23;20402;-75
2023/01/21 04:01:54;;;;;;;51.60;33.30;;;0.90;99.90;;;;;;6137972;23;20893;-74
2023/01/21 04:04:23;;;;;;;47.10;35.70;;;0.90;99.90;;;;;;6126470;23;20950;-75
2023/01/21 04:06:51;;;;;;;46.93;35.60;;;0.90;99.90;;;;;;6137806;23;20420;-75
2023/01/21 04:09:20;;;;;;;46.23;35.20;;;0.90;99.90;;;;;;6128408;23;20812;-74
2023/01/21 04:11:48;;;;;;;46.67;34.33;;;0.80;99.90;;;;;;6137852;23;20430;-74
2023/01/21 04:14:16;;;;;;;46.63;32.23;;;0.80;99.90;;;;;;6126499;23;20421;-74
2023/01/21 04:16:45;;;;;;;43.93;33.13;;;0.80;99.90;;;;;;6126698;23;21021;-74
2023/01/21 04:19:13;;;;;;;41.30;30.73;;;0.80;99.90;;;;;;6126446;23;20898;-74
2023/01/21 04:21:41;;;;;;;45.43;32.40;;;0.70;99.90;;;;;;6138132;23;20397;-74
2023/01/21 04:24:09;;;;;;;46.20;34.00;;;0.70;99.90;;;;;;6127855;23;20433;-74
2023/01/21 04:26:39;;;;;;;43.80;32.53;;;0.70;99.90;;;;;;6128400;23;20426;-74
2023/01/21 04:29:07;;;;;;;43.10;33.67;;;0.60;99.90;;;;;;6137716;23;20472;-74
2023/01/21 04:31:35;;;;;;;45.17;31.43;;;0.60;99.90;;;;;;6126489;23;20738;-74
2023/01/21 04:34:03;;;;;;;47.83;34.53;;;0.60;99.90;;;;;;6137953;23;20397;-74
2023/01/21 04:36:31;;;;;;;48.63;32.97;;;0.50;99.90;;;;;;6125460;23;20438;-74
2023/01/21 04:38:59;;;;;;;52.10;35.60;;;0.50;99.90;;;;;;6126043;23;20425;-74
2023/01/21 04:41:27;;;;;;;51.37;35.83;;;0.40;99.90;;;;;;6126354;23;20483;-74
2023/01/21 04:43:57;;;;;;;51.97;35.57;;;0.40;99.90;;;;;;6126273;23;20449;-74
2023/01/21 04:46:25;;;;;;;50.70;34.90;;;0.40;99.90;;;;;;6128059;23;20476;-74
2023/01/21 04:48:53;;;;;;;46.60;33.33;;;0.40;99.90;;;;;;6137613;23;20414;-74
2023/01/21 04:51:21;;;;;;;45.27;33.80;;;0.30;99.90;;;;;;6126163;23;20419;-74
2023/01/21 04:53:49;;;;;;;50.93;34.00;;;0.30;99.90;;;;;;6137824;23;20412;-74
2023/01/21 04:56:17;;;;;;;49.73;35.20;;;0.30;99.90;;;;;;6125600;23;20433;-74
2023/01/21 04:58:45;;;;;;;45.63;32.13;;;0.30;99.90;;;;;;6137476;23;20408;-74
2023/01/21 05:01:15;;;;;;;47.60;32.80;;;0.30;99.90;;;;;;6137400;23;20401;-74
2023/01/21 05:03:46;;;;;;;50.87;33.20;;;0.30;99.90;;;;;;6128003;23;20488;-74
2023/01/21 05:06:14;;;;;;;48.10;32.07;;;0.30;99.90;;;;;;6125877;23;20453;-74
2023/01/21 05:08:42;;;;;;;46.97;31.00;;;0.30;99.90;;;;;;6138099;23;20402;-74
2023/01/21 05:11:12;;;;;;;47.33;32.73;;;0.30;99.90;;;;;;6126019;23;20794;-74
2023/01/21 05:13:40;;;;;;;50.47;32.60;;;0.30;99.90;;;;;;6137330;23;20893;-74
2023/01/21 05:16:08;;;;;;;48.73;32.07;;;0.30;99.90;;;;;;6137612;23;20398;-74
2023/01/21 05:18:39;;;;;;;48.60;32.83;;;0.30;99.90;;;;;;6125976;23;20464;-74
2023/01/21 05:21:08;;;;;;;46.60;30.90;;;0.30;99.90;;;;;;6137680;23;20408;-74
2023/01/21 05:23:36;;;;;;;43.47;29.30;;;0.30;99.90;;;;;;6137510;23;20402;-74
2023/01/21 05:26:04;;;;;;;46.50;30.50;;;0.30;99.90;;;;;;6125771;23;20459;-74
2023/01/21 05:28:32;;;;;;;51.50;32.53;;;0.30;99.90;;;;;;6125862;23;20443;-74
2023/01/21 05:31:01;;;;;;;48.90;33.83;;;0.30;99.90;;;;;;6137292;23;20406;-74
2023/01/21 05:33:31;;;;;;;49.60;34.43;;;0.30;99.90;;;;;;6137097;23;20488;-74
2023/01/21 05:36:02;;;;;;;50.90;33.37;;;0.30;99.90;;;;;;6137241;23;20402;-74
2023/01/21 05:38:30;;;;;;;49.77;33.50;;;0.30;99.90;;;;;;6127670;23;20393;-74
2023/01/21 05:40:59;;;;;;;48.23;33.30;;;0.30;99.90;;;;;;6125945;23;20450;-74
2023/01/21 05:43:28;;;;;;;48.30;32.43;;;0.30;99.90;;;;;;6125783;23;20421;-74
2023/01/21 05:45:56;;;;;;;46.70;33.20;;;0.30;99.90;;;;;;6121570;23;20813;-74
2023/01/21 05:48:25;;;;;;;49.47;33.07;;;0.40;99.90;;;;;;6134020;23;20705;-74
2023/01/21 05:50:53;;;;;;;50.60;34.90;;;0.40;99.90;;;;;;6122405;23;20795;-74
2023/01/21 05:53:24;;;;;;;46.53;32.33;;;0.40;99.90;;;;;;6133866;23;20735;-74
2023/01/21 05:55:53;;;;;;;48.17;33.60;;;0.40;99.90;;;;;;6133641;23;20412;-74
2023/01/21 05:58:25;;;;;;;48.07;32.90;;;0.40;99.90;;;;;;6133541;23;20397;-74
2023/01/21 06:00:53;;;;;;;45.80;32.73;;;0.50;99.90;;;;;;6133829;23;20386;-74
2023/01/21 06:03:21;;;;;;;48.43;31.37;;;0.50;99.90;;;;;;6133665;23;20432;-74
2023/01/21 06:05:51;;;;;;;48.80;33.63;;;0.50;99.90;;;;;;6133589;23;20444;-74
2023/01/21 06:08:19;;;;;;;50.60;33.63;;;0.50;99.90;;;;;;6123918;23;20996;-74
2023/01/21 06:10:49;;;;;;;46.13;31.20;;;0.50;99.90;;;;;;6122414;23;20421;-74
2023/01/21 06:13:17;;;;;;;50.73;36.50;;;0.50;99.90;;;;;;6122496;23;20418;-74
2023/01/21 06:15:45;;;;;;;50.53;34.13;;;0.50;99.90;;;;;;6122212;23;20429;-74
2023/01/21 06:18:13;;;;;;;49.33;33.53;;;0.50;99.90;;;;;;6133790;23;20442;-74
2023/01/21 06:20:42;;;;;;;47.33;33.30;;;0.50;99.90;;;;;;6122061;23;20425;-74
2023/01/21 06:23:10;;;;;;;54.83;34.70;;;0.50;99.90;;;;;;6133964;23;20402;-74
2023/01/21 06:25:39;;;;;;;51.10;36.43;;;0.50;99.90;;;;;;6122625;23;20448;-74
2023/01/21 06:28:10;;;;;;;49.97;33.17;;;0.60;99.90;;;;;;6122229;23;20446;-74
2023/01/21 06:30:38;;;;;;;49.70;35.33;;;0.50;99.90;;;;;;6133692;23;20393;-74
2023/01/21 06:33:06;;;;;;;45.80;32.93;;;0.60;99.90;;;;;;6121758;23;20422;-74
2023/01/21 06:35:35;;;;;;;57.50;36.97;;;0.60;99.90;;;;;;6122118;23;20422;-74
2023/01/21 06:38:04;;;;;;;54.40;36.17;;;0.60;99.90;;;;;;6122166;23;20451;-74
2023/01/21 06:40:32;;;;;;;47.93;34.30;;;0.60;99.90;;;;;;6119635;23;20430;-74
2023/01/21 06:43:00;;;;;;;51.63;36.27;;;0.60;99.90;;;;;;6133311;23;20406;-74
2023/01/21 06:45:30;;;;;;;50.70;36.23;;;0.60;99.90;;;;;;6123314;23;20449;-74
2023/01/21 06:47:58;;;;;;;48.90;34.80;;;0.60;99.90;;;;;;6133216;23;20425;-74
2023/01/21 06:50:26;;;;;;;51.23;35.47;;;0.70;99.90;;;;;;6133669;23;20416;-74
2023/01/21 06:52:54;;;;;;;56.40;40.77;;;0.70;99.90;;;;;;6133304;23;20853;-74
2023/01/21 06:55:22;;;;;;;53.23;39.63;;;0.70;99.90;;;;;;6121809;23;20511;-74
2023/01/21 06:57:50;;;;;;;61.90;42.30;;;0.70;99.90;;;;;;6121822;23;20951;-74
2023/01/21 07:00:19;;;;;;;60.87;40.13;;;0.70;99.90;;;;;;6123703;23;20845;-74
2023/01/21 07:02:48;;;;;;;49.17;33.93;;;0.70;99.90;;;;;;6133248;23;20504;-74
2023/01/21 07:05:18;;;;;;;61.93;40.47;;;0.70;99.90;;;;;;6123791;23;20778;-74
2023/01/21 07:07:46;;;;;;;55.20;37.60;;;0.70;99.90;;;;;;6121643;23;20444;-74
2023/01/21 07:10:14;;;;;;;56.97;40.13;;;0.80;99.90;;;;;;6133348;23;20493;-74
2023/01/21 07:12:43;;;;;;;58.80;38.90;;;0.80;99.90;;;;;;6121683;23;20414;-74
2023/01/21 07:15:11;;;;;;;51.60;37.47;;;0.80;99.90;;;;;;6121694;23;20767;-74
2023/01/21 07:17:39;;;;;;;53.87;37.97;;;0.80;99.90;;;;;;6121651;23;20437;-74
2023/01/21 07:20:11;;;;;;;53.03;37.17;;;0.80;99.90;;;;;;6121477;23;20744;-74
2023/01/21 07:22:39;;;;;;;52.33;37.47;;;0.80;99.90;;;;;;6121716;23;20410;-74
2023/01/21 07:25:08;;;;;;;46.70;33.03;;;0.80;99.90;;;;;;6121939;23;20886;-74
2023/01/21 07:27:37;;;;;;;51.00;35.67;;;0.80;99.90;;;;;;6121535;23;20453;-74
2023/01/21 07:30:07;;;;;;;52.60;35.20;;;0.90;99.90;;;;;;6121797;23;20419;-74
2023/01/21 07:32:35;;;;;;;52.17;35.40;;;0.90;99.90;;;;;;6133011;23;20734;-74
2023/01/21 07:35:03;;;;;;;49.70;35.40;;;0.90;99.90;;;;;;6121651;23;20477;-75
2023/01/21 07:37:33;;;;;;;49.87;37.80;;;0.90;99.90;;;;;;6121498;23;20772;-74
2023/01/21 07:40:01;;;;;;;46.67;33.60;;;0.90;99.90;;;;;;6120624;23;20897;-75
2023/01/21 07:42:29;;;;;;;49.33;35.27;;;0.90;99.90;;;;;;6121517;23;20924;-74
2023/01/21 07:44:58;;;;;;;49.47;35.47;;;1.00;99.90;;;;;;6132443;23;20905;-75
2023/01/21 07:47:26;;;;;;;47.10;35.00;;;1.00;99.90;;;;;;6132791;23;20529;-75
2023/01/21 07:49:54;;;;;;;46.33;33.33;;;1.00;99.90;;;;;;6123405;23;20405;-74
2023/01/21 07:52:22;;;;;;;44.80;35.47;;;1.00;99.90;;;;;;6121522;23;20429;-74
2023/01/21 07:54:52;;;;;;;48.07;35.23;;;1.00;99.90;;;;;;6121710;23;20496;-74
2023/01/21 07:57:20;;;;;;;47.20;34.30;;;1.00;99.90;;;;;;6121660;23;20441;-74
2023/01/21 07:59:48;;;;;;;43.70;32.50;;;1.10;99.90;;;;;;6121639;23;20414;-74
2023/01/21 08:02:19;;;;;;;47.63;33.60;;;1.10;99.90;;;;;;6121849;23;20894;-74
2023/01/21 08:04:47;;;;;;;42.90;33.83;;;1.10;99.90;;;;;;6132877;23;20847;-74
2023/01/21 08:07:16;;;;;;;42.43;31.97;;;1.10;99.90;;;;;;6121390;23;20477;-74
2023/01/21 08:09:44;;;;;;;44.67;32.87;;;1.10;99.90;;;;;;6121095;23;20425;-74
2023/01/21 08:12:13;;;;;;;44.27;31.60;;;1.10;99.90;;;;;;6122056;23;20444;-74
2023/01/21 08:14:42;;;;;;;43.67;32.10;;;1.10;99.90;;;;;;6121627;23;21328;-74
2023/01/21 08:17:10;;;;;;;40.63;31.10;;;1.00;99.90;;;;;;6122950;23;20760;-74
2023/01/21 08:19:38;;;;;;;40.10;29.40;;;1.00;99.90;;;;;;6132911;23;20427;-74
2023/01/21 08:22:06;;;;;;;41.27;31.33;;;1.00;99.90;;;;;;6132697;23;20773;-74
2023/01/21 08:24:34;;;;;;;42.77;32.30;;;1.00;99.90;;;;;;6133001;23;20409;-75
2023/01/21 08:27:02;;;;;;;42.87;32.17;;;1.00;99.90;;;;;;6132645;23;20456;-74
2023/01/21 08:29:32;;;;;;;40.83;31.03;;;1.00;99.90;;;;;;6121598;23;20410;-74
2023/01/21 08:32:00;;;;;;;46.33;32.17;;;1.10;99.90;;;;;;6134348;23;20417;-75
2023/01/21 08:34:28;;;;;;;42.10;32.23;;;1.10;99.90;;;;;;6134345;23;20398;-74
2023/01/21 08:36:56;;;;;;;43.37;33.00;;;1.10;99.90;;;;;;6134690;23;20461;-74
2023/01/21 08:39:24;;;;;;;44.47;33.77;;;1.10;99.90;;;;;;6120631;23;20401;-74
2023/01/21 08:41:52;;;;;;;41.63;31.87;;;1.10;99.90;;;;;;6134624;23;20410;-74
2023/01/21 08:44:20;;;;;;;41.90;32.70;;;1.10;99.90;;;;;;6132988;23;20504;-75
2023/01/21 08:46:50;;;;;;;43.97;32.37;;;1.20;99.90;;;;;;6123020;23;20457;-75
2023/01/21 08:49:18;;;;;;;44.27;33.97;;;1.20;99.90;;;;;;6134661;23;20731;-74
2023/01/21 08:51:46;;;;;;;46.07;35.63;;;1.20;99.90;;;;;;6134523;23;20422;-74
2023/01/21 08:54:15;;;;;;;46.50;35.33;;;1.20;99.90;;;;;;6123102;23;20931;-74
2023/01/21 08:56:43;;;;;;;45.90;33.63;;;1.20;99.90;;;;;;6122673;23;20453;-74
2023/01/21 08:59:11;;;;;;;43.70;32.10;;;1.30;99.90;;;;;;6124924;23;20441;-74
2023/01/21 09:01:40;;;;;;;42.80;32.90;;;1.30;99.90;;;;;;6122824;23;20421;-74
2023/01/21 09:04:10;;;;;;;49.53;34.73;;;1.30;99.90;;;;;;6123002;23;20511;-75
2023/01/21 09:06:38;;;;;;;45.50;33.23;;;1.30;99.90;;;;;;6126216;23;20442;-75
2023/01/21 09:09:06;;;;;;;43.10;33.07;;;1.30;99.90;;;;;;6137502;23;20418;-75
2023/01/21 09:11:34;;;;;;;41.20;33.47;;;1.30;99.90;;;;;;6126095;23;20455;-74
2023/01/21 09:14:03;;;;;;;48.17;33.50;;;1.30;99.90;;;;;;6127490;23;20411;-75
2023/01/21 09:16:31;;;;;;;48.27;34.20;;;1.30;99.90;;;;;;6137348;23;20920;-75
2023/01/21 09:18:59;;;;;;;48.10;35.40;;;1.40;99.90;;;;;;6126058;23;20415;-75
2023/01/21 09:21:29;;;;;;;47.30;36.63;;;1.30;99.90;;;;;;6126064;23;20415;-75
2023/01/21 09:23:57;;;;;;;52.80;37.37;;;1.40;99.90;;;;;;6137372;23;20403;-75
2023/01/21 09:26:26;;;;;;;52.90;38.00;;;1.40;99.90;;;;;;6125788;23;20440;-75
2023/01/21 09:28:56;;;;;;;50.70;36.80;;;1.40;99.90;;;;;;6125949;23;20409;-75
2023/01/21 09:31:26;;;;;;;44.67;35.03;;;1.50;99.90;;;;;;6125903;23;20415;-75
2023/01/21 09:33:56;;;;;;;50.80;39.13;;;1.50;99.90;;;;;;6126042;23;20501;-75
2023/01/21 09:36:26;;;;;;;53.00;37.53;;;1.50;99.90;;;;;;6137113;23;20992;-75
2023/01/21 09:38:56;;;;;;;52.57;38.13;;;1.50;99.90;;;;;;6137203;23;20736;-75
2023/01/21 09:41:28;;;;;;;55.37;39.97;;;1.60;99.90;;;;;;6137665;23;20495;-75
2023/01/21 09:44:03;;;;;;;57.40;40.20;;;1.60;99.90;;;;;;6137560;23;20476;-75
2023/01/21 09:46:37;;;;;;;56.20;38.87;;;1.60;99.90;;;;;;6125856;23;20451;-76
2023/01/21 09:49:13;;;;;;;60.03;41.10;;;1.60;99.90;;;;;;6137130;23;20385;-75
2023/01/21 09:51:48;;;;;;;56.90;41.37;;;1.70;99.90;;;;;;6137522;23;20395;-75
2023/01/21 09:54:27;;;;;;;57.70;38.30;;;1.70;99.90;;;;;;6137793;23;20422;-75
2023/01/21 09:57:18;;;;;;;60.70;38.90;;;1.70;99.90;;;;;;6125643;23;20444;-75
2023/01/21 09:59:56;;;;;;;61.97;41.10;;;1.70;99.90;;;;;;6127235;23;20395;-75
2023/01/21 10:02:31;;;;;;;64.00;39.50;;;1.80;99.90;;;;;;6125703;23;20443;-75
2023/01/21 10:05:16;;;;;;;60.80;41.50;;;1.80;99.90;;;;;;6137316;23;20478;-75
2023/01/21 10:07:51;;;;;;;67.53;42.60;;;1.80;99.90;;;;;;6136860;23;20429;-75
2023/01/21 10:10:27;;;;;;;66.70;43.20;;;1.90;99.90;;;;;;6127187;23;20392;-75
2023/01/21 10:13:13;;;;;;;67.83;42.50;;;1.90;99.90;;;;;;6137264;23;20439;-75
2023/01/21 10:15:53;;;;;;;61.00;37.83;;;2.00;99.90;;;;;;6125541;23;20413;-76
2023/01/21 10:18:26;;;;;;;66.30;40.77;;;1.90;99.90;;;;;;6136996;23;20392;-75
2023/01/21 10:21:02;;;;;;;65.83;40.97;;;2.00;99.90;;;;;;6136869;23;20483;-75
2023/01/21 10:23:34;;;;;;;69.43;40.93;;;2.00;99.90;;;;;;6125632;23;20410;-75
2023/01/21 10:26:08;;;;;;;61.67;41.30;;;2.10;99.90;;;;;;6136896;23;20716;-75
2023/01/21 10:28:40;;;;;;;65.73;41.10;;;2.10;99.90;;;;;;6125305;23;20433;-75
2023/01/21 10:31:18;;;;;;;62.47;38.43;;;2.10;99.90;;;;;;6125516;23;20405;-76
2023/01/21 10:33:46;;;;;;;62.30;39.23;;;2.20;99.90;;;;;;6125371;23;20865;-75
2023/01/21 10:36:45;;;;;;;58.30;37.73;;;2.20;99.90;;;;;;6136556;23;20731;-75
2023/01/21 10:39:22;;;;;;;62.87;38.20;;;2.20;99.90;;;;;;6127267;23;20467;-75
2023/01/21 10:42:17;;;;;;;62.17;37.63;;;2.30;99.90;;;;;;6125412;23;20737;-76
2023/01/21 10:44:52;;;;;;;61.00;38.30;;;2.30;99.90;;;;;;6125569;23;20741;-76
2023/01/21 10:47:31;;;;;;;59.57;37.77;;;2.30;99.90;;;;;;6125150;23;20938;-76
2023/01/21 10:50:04;;;;;;;59.73;37.47;;;2.30;99.90;;;;;;6125177;23;20417;-75
2023/01/21 10:52:39;;;;;;;59.90;37.47;;;2.30;99.90;;;;;;6125256;23;20421;-75
2023/01/21 10:55:21;;;;;;;63.73;38.77;;;2.30;99.90;;;;;;6126890;23;20772;-74
2023/01/21 10:57:58;;;;;;;61.43;39.27;;;2.30;99.90;;;;;;6125076;23;20751;-74
2023/01/21 11:00:29;;;;;;;69.97;40.63;;;2.30;99.90;;;;;;6125096;23;20419;-74
2023/01/21 11:03:02;;;;;;;68.10;43.50;;;2.40;99.90;;;;;;6136406;23;20390;-74
2023/01/21 11:05:31;;;;;;;74.93;43.87;;;2.40;99.90;;;;;;6136525;23;20382;-74
2023/01/21 11:07:59;;;;;;;72.33;45.47;;;2.40;99.90;;;;;;6136151;23;20438;-74
2023/01/21 11:10:28;;;;;;;78.17;44.83;;;2.40;99.90;;;;;;6125111;23;20417;-74
2023/01/21 11:12:57;;;;;;;78.50;47.23;;;2.40;99.90;;;;;;6136722;23;20793;-74
2023/01/21 11:15:29;;;;;;;75.53;49.37;;;2.50;99.90;;;;;;6124966;23;20409;-74
2023/01/21 11:17:58;;;;;;;86.57;47.27;;;2.50;99.90;;;;;;6136307;23;20419;-74
2023/01/21 11:20:39;;;;;;;61.50;40.40;;;2.50;99.90;;;;;;6136231;23;20397;-74
2023/01/21 11:23:26;;;;;;;55.97;36.50;;;2.50;99.90;;;;;;6136544;23;20406;-74
2023/01/21 11:26:02;;;;;;;57.80;36.77;;;2.50;99.90;;;;;;6125004;23;20520;-74
2023/01/21 11:28:31;;;;;;;51.60;35.53;;;2.50;99.90;;;;;;6136516;23;20979;-74
2023/01/21 11:31:07;;;;;;;48.20;35.17;;;2.60;99.90;;;;;;6124874;23;20892;-74
2023/01/21 11:33:37;;;;;;;49.80;35.53;;;2.60;99.90;;;;;;6124938;23;20873;-74
2023/01/21 11:36:16;;;;;;;47.63;33.57;;;2.60;99.90;;;;;;6124813;23;20425;-74
2023/01/21 11:38:46;;;;;;;53.00;37.83;;;2.60;99.90;;;;;;6136584;23;20377;-74
2023/01/21 11:41:17;;;;;;;49.57;34.40;;;2.70;99.90;;;;;;6136179;23;20771;-74
2023/01/21 11:43:50;;;;;;;49.27;33.40;;;2.70;99.90;;;;;;6126902;23;20485;-74
2023/01/21 11:46:25;;;;;;;48.17;33.80;;;2.70;99.90;;;;;;6126636;23;20433;-74
2023/01/21 11:48:55;;;;;;;48.43;33.67;;;2.70;99.90;;;;;;6124791;23;20439;-74
2023/01/21 11:51:23;;;;;;;50.47;35.37;;;2.70;99.90;;;;;;6136255;23;20428;-75
2023/01/21 11:54:08;;;;;;;52.80;35.40;;;2.70;99.90;;;;;;6136097;23;20433;-75
2023/01/21 11:56:38;;;;;;;46.93;32.53;;;2.70;99.90;;;;;;6126625;23;20433;-74
2023/01/21 11:59:21;;;;;;;52.40;38.20;;;2.70;99.90;;;;;;6136163;23;20393;-75
2023/01/21 12:01:56;;;;;;;56.87;39.57;;;2.80;99.90;;;;;;6124852;23;20417;-74
2023/01/21 12:04:26;;;;;;;50.80;37.90;;;2.70;99.90;;;;;;6136836;23;20388;-75
2023/01/21 12:06:57;;;;;;;49.93;35.93;;;2.70;99.90;;;;;;6138225;23;20420;-74
2023/01/21 12:09:26;;;;;;;50.97;38.73;;;2.70;99.90;;;;;;6138494;23;20449;-74
2023/01/21 12:12:30;;;;;;;56.73;43.40;;;2.80;99.90;;;;;;6138883;23;20735;-74
2023/01/21 12:15:10;;;;;;;59.33;43.87;;;2.80;99.90;;;;;;6109862;23;20445;-74
2023/01/21 12:17:50;;;;;;;57.60;41.00;;;2.80;99.90;;;;;;6126800;23;20440;-75
2023/01/21 12:20:31;;;;;;;61.77;40.60;;;2.80;99.90;;;;;;6138685;23;20428;-75
2023/01/21 12:23:30;;;;;;;56.50;39.77;;;2.80;99.90;;;;;;6129300;23;20425;-75
2023/01/21 12:26:01;;;;;;;58.00;36.60;;;2.90;99.90;;;;;;6140465;23;20384;-75
2023/01/21 12:28:46;;;;;;;56.90;37.03;;;2.90;99.90;;;;;;6130050;23;20456;-75
2023/01/21 12:31:24;;;;;;;46.77;34.87;;;2.90;99.90;;;;;;6127155;23;20752;-75
2023/01/21 12:33:59;;;;;;;45.27;31.87;;;2.90;99.90;;;;;;6138551;23;20393;-75
2023/01/21 12:36:31;;;;;;;43.10;33.20;;;2.90;99.90;;;;;;6126703;23;20439;-75
2023/01/21 12:39:16;;;;;;;43.07;31.43;;;2.90;99.90;;;;;;6138601;23;20761;-74
2023/01/21 12:41:51;;;;;;;38.07;29.67;;;2.90;99.90;;;;;;6126794;23;20413;-74
2023/01/21 12:44:28;;;;;;;42.13;28.03;;;2.90;99.90;;;;;;6128130;23;20408;-74
2023/01/21 12:47:03;;;;;;;34.73;26.67;;;2.90;99.90;;;;;;6126332;23;20451;-75
2023/01/21 12:49:51;;;;;;;40.63;29.73;;;2.90;99.90;;;;;;6138148;23;20417;-74
2023/01/21 12:52:25;;;;;;;40.30;29.23;;;3.00;99.90;;;;;;6138094;23;20387;-74
2023/01/21 12:55:01;;;;;;;37.73;27.60;;;3.00;99.90;;;;;;6138052;23;20745;-74
2023/01/21 12:57:34;;;;;;;38.67;28.87;;;2.90;99.90;;;;;;6127788;23;20749;-75
2023/01/21 13:00:12;;;;;;;42.60;30.20;;;3.00;99.90;;;;;;6126332;23;20413;-74
2023/01/21 13:02:49;;;;;;;39.80;28.20;;;3.00;99.90;;;;;;6126393;23;20409;-75
2023/01/21 13:05:23;;;;;;;37.73;28.20;;;3.00;99.90;;;;;;6122597;23;20420;-75